Fort Hood, Texas
Current Conditions -  °F | °C
As of 3:56 AM on Thursday 23 Oct 2014 (Local Time) from KHLR Reporting Station
Scattered Clouds Scattered Clouds  
Wind Chill: 20°   Ceiling: Unl
Heat Index: 20°   Visibility: 10mi
Dew Point: 14°   Wind: 3mph
Humidity: 70%   Direction: 110°ESE
Pressure: 30.1"   Gusts: NA
Location:  31.2151°N, 97.7405°W
Report Text: KHLR 230856Z AUTO 11003KT 10SM FEW070 SCT120 20/14 A3010 RMK AO2 SLPNO 53000 T02000144 PWINO $
Loading
Personal Weather Stations






























Interactive Weather Map
Tropical Storm Tracking
New forecast layout! Learn more

10-Day Weather Forecast

Advertisements
Track Severe Weather on mobile